sensor_id;sensor_type;location;lat;lon;timestamp;temperature;humidity
1205;DHT22;592;48.764;9.174;2022-10-31T00:01:44;13.40;99.90
1205;DHT22;592;48.764;9.174;2022-10-31T00:04:11;13.40;99.90
1205;DHT22;592;48.764;9.174;2022-10-31T00:06:37;13.40;99.90
1205;DHT22;592;48.764;9.174;2022-10-31T00:09:04;13.40;99.90
1205;DHT22;592;48.764;9.174;2022-10-31T00:11:32;13.40;99.90
1205;DHT22;592;48.764;9.174;2022-10-31T00:14:00;13.30;99.90
1205;DHT22;592;48.764;9.174;2022-10-31T00:16:27;13.30;99.90
1205;DHT22;592;48.764;9.174;2022-10-31T00:18:56;13.30;99.90
1205;DHT22;592;48.764;9.174;2022-10-31T00:21:24;13.30;99.90
1205;DHT22;592;48.764;9.174;2022-10-31T00:23:51;13.30;99.90
1205;DHT22;592;48.764;9.174;2022-10-31T00:26:18;13.30;99.90
1205;DHT22;592;48.764;9.174;2022-10-31T00:28:46;13.30;99.90
1205;DHT22;592;48.764;9.174;2022-10-31T00:31:14;13.20;99.90
1205;DHT22;592;48.764;9.174;2022-10-31T00:33:41;13.20;99.90
1205;DHT22;592;48.764;9.174;2022-10-31T00:36:12;13.20;99.90
1205;DHT22;592;48.764;9.174;2022-10-31T00:38:39;13.20;99.90
1205;DHT22;592;48.764;9.174;2022-10-31T00:41:06;13.10;99.90
1205;DHT22;592;48.764;9.174;2022-10-31T00:43:32;13.00;99.90
1205;DHT22;592;48.764;9.174;2022-10-31T00:46:00;13.00;99.90
1205;DHT22;592;48.764;9.174;2022-10-31T00:48:28;13.10;99.90
1205;DHT22;592;48.764;9.174;2022-10-31T00:50:55;13.00;99.90
1205;DHT22;592;48.764;9.174;2022-10-31T00:53:22;13.10;99.90
1205;DHT22;592;48.764;9.174;2022-10-31T00:55:49;13.00;99.90
1205;DHT22;592;48.764;9.174;2022-10-31T00:58:15;13.00;99.90
1205;DHT22;592;48.764;9.174;2022-10-31T01:00:42;13.00;99.90
1205;DHT22;592;48.764;9.174;2022-10-31T01:03:10;13.00;99.90
1205;DHT22;592;48.764;9.174;2022-10-31T01:05:37;12.90;99.90
1205;DHT22;592;48.764;9.174;2022-10-31T01:08:04;12.90;99.90
1205;DHT22;592;48.764;9.174;2022-10-31T01:10:30;13.00;99.90
1205;DHT22;592;48.764;9.174;2022-10-31T01:12:57;12.80;99.90
1205;DHT22;592;48.764;9.174;2022-10-31T01:15:24;12.90;99.90
1205;DHT22;592;48.764;9.174;2022-10-31T01:17:51;12.90;99.90
1205;DHT22;592;48.764;9.174;2022-10-31T01:20:19;13.00;99.90
1205;DHT22;592;48.764;9.174;2022-10-31T01:22:45;13.00;99.90
1205;DHT22;592;48.764;9.174;2022-10-31T01:25:12;12.90;99.90
1205;DHT22;592;48.764;9.174;2022-10-31T01:27:39;12.80;99.90
1205;DHT22;592;48.764;9.174;2022-10-31T01:30:06;12.80;99.90
1205;DHT22;592;48.764;9.174;2022-10-31T01:32:34;12.80;99.90
1205;DHT22;592;48.764;9.174;2022-10-31T01:35:00;12.90;99.90
1205;DHT22;592;48.764;9.174;2022-10-31T01:37:30;12.90;99.90
1205;DHT22;592;48.764;9.174;2022-10-31T01:39:57;12.90;99.90
1205;DHT22;592;48.764;9.174;2022-10-31T01:42:24;13.00;99.90
1205;DHT22;592;48.764;9.174;2022-10-31T01:44:54;13.00;99.90
1205;DHT22;592;48.764;9.174;2022-10-31T01:47:27;12.90;99.90
1205;DHT22;592;48.764;9.174;2022-10-31T01:49:59;13.00;99.90
1205;DHT22;592;48.764;9.174;2022-10-31T01:52:31;13.00;99.90
1205;DHT22;592;48.764;9.174;2022-10-31T01:55:02;13.00;99.90
1205;DHT22;592;48.764;9.174;2022-10-31T01:57:30;13.10;99.90
1205;DHT22;592;48.764;9.174;2022-10-31T02:00:00;13.10;99.90
1205;DHT22;592;48.764;9.174;2022-10-31T02:02:27;13.00;99.90
1205;DHT22;592;48.764;9.174;2022-10-31T02:04:55;13.00;99.90
1205;DHT22;592;48.764;9.174;2022-10-31T02:07:30;13.00;99.90
1205;DHT22;592;48.764;9.174;2022-10-31T02:09:59;12.80;99.90
1205;DHT22;592;48.764;9.174;2022-10-31T02:12:27;12.70;99.90
1205;DHT22;592;48.764;9.174;2022-10-31T02:14:54;12.80;99.90
1205;DHT22;592;48.764;9.174;2022-10-31T02:17:21;12.80;99.90
1205;DHT22;592;48.764;9.174;2022-10-31T02:19:54;12.80;99.90
1205;DHT22;592;48.764;9.174;2022-10-31T02:22:26;12.80;99.90
1205;DHT22;592;48.764;9.174;2022-10-31T02:25:08;12.80;99.90
1205;DHT22;592;48.764;9.174;2022-10-31T02:33:21;12.70;99.90
1205;DHT22;592;48.764;9.174;2022-10-31T02:35:55;12.80;99.90
1205;DHT22;592;48.764;9.174;2022-10-31T02:38:34;12.70;99.90
1205;DHT22;592;48.764;9.174;2022-10-31T02:41:11;12.80;99.90
1205;DHT22;592;48.764;9.174;2022-10-31T02:43:48;12.70;99.90
1205;DHT22;592;48.764;9.174;2022-10-31T02:46:24;12.70;99.90
1205;DHT22;592;48.764;9.174;2022-10-31T02:48:55;12.70;99.90
1205;DHT22;592;48.764;9.174;2022-10-31T02:51:23;12.80;99.90
1205;DHT22;592;48.764;9.174;2022-10-31T02:53:50;12.60;99.90
1205;DHT22;592;48.764;9.174;2022-10-31T02:56:18;12.60;99.90
1205;DHT22;592;48.764;9.174;2022-10-31T02:58:47;12.60;99.90
1205;DHT22;592;48.764;9.174;2022-10-31T03:01:33;12.50;99.90
1205;DHT22;592;48.764;9.174;2022-10-31T03:07:08;12.30;99.90
1205;DHT22;592;48.764;9.174;2022-10-31T03:09:42;12.40;99.90
1205;DHT22;592;48.764;9.174;2022-10-31T03:12:15;12.50;99.90
1205;DHT22;592;48.764;9.174;2022-10-31T03:14:51;12.50;99.90
1205;DHT22;592;48.764;9.174;2022-10-31T03:17:23;12.40;99.90
1205;DHT22;592;48.764;9.174;2022-10-31T03:19:54;12.60;99.90
1205;DHT22;592;48.764;9.174;2022-10-31T03:22:23;12.50;99.90
1205;DHT22;592;48.764;9.174;2022-10-31T03:24:52;12.50;99.90
1205;DHT22;592;48.764;9.174;2022-10-31T03:27:23;12.50;99.90
1205;DHT22;592;48.764;9.174;2022-10-31T03:29:52;12.40;99.90
1205;DHT22;592;48.764;9.174;2022-10-31T03:32:23;12.40;99.90
1205;DHT22;592;48.764;9.174;2022-10-31T03:34:55;12.30;99.90
1205;DHT22;592;48.764;9.174;2022-10-31T03:37:27;12.20;99.90
1205;DHT22;592;48.764;9.174;2022-10-31T03:39:55;12.10;99.90
1205;DHT22;592;48.764;9.174;2022-10-31T03:42:25;12.30;99.90
1205;DHT22;592;48.764;9.174;2022-10-31T03:44:55;12.30;99.90
1205;DHT22;592;48.764;9.174;2022-10-31T03:47:24;12.10;99.90
1205;DHT22;592;48.764;9.174;2022-10-31T03:49:53;12.10;99.90
1205;DHT22;592;48.764;9.174;2022-10-31T03:52:25;12.10;99.90
1205;DHT22;592;48.764;9.174;2022-10-31T03:54:56;12.20;99.90
1205;DHT22;592;48.764;9.174;2022-10-31T03:57:27;12.10;99.90
1205;DHT22;592;48.764;9.174;2022-10-31T03:59:57;12.20;99.90
1205;DHT22;592;48.764;9.174;2022-10-31T04:02:28;12.20;99.90
1205;DHT22;592;48.764;9.174;2022-10-31T04:04:58;12.20;99.90
1205;DHT22;592;48.764;9.174;2022-10-31T04:07:28;12.10;99.90
1205;DHT22;592;48.764;9.174;2022-10-31T04:09:57;12.20;99.90
1205;DHT22;592;48.764;9.174;2022-10-31T04:12:27;12.10;99.90
1205;DHT22;592;48.764;9.174;2022-10-31T04:14:56;12.00;99.90
1205;DHT22;592;48.764;9.174;2022-10-31T04:17:27;11.90;99.90
1205;DHT22;592;48.764;9.174;2022-10-31T04:19:59;11.70;99.90
1205;DHT22;592;48.764;9.174;2022-10-31T04:22:26;11.90;99.90
1205;DHT22;592;48.764;9.174;2022-10-31T04:24:53;11.90;99.90
1205;DHT22;592;48.764;9.174;2022-10-31T04:27:20;11.90;99.90
1205;DHT22;592;48.764;9.174;2022-10-31T04:29:46;12.00;99.90
1205;DHT22;592;48.764;9.174;2022-10-31T04:32:13;12.00;99.90
1205;DHT22;592;48.764;9.174;2022-10-31T04:34:40;12.00;99.90
1205;DHT22;592;48.764;9.174;2022-10-31T04:37:08;12.00;99.90
1205;DHT22;592;48.764;9.174;2022-10-31T04:39:35;11.90;99.90
1205;DHT22;592;48.764;9.174;2022-10-31T04:42:02;11.80;99.90
1205;DHT22;592;48.764;9.174;2022-10-31T04:44:28;11.70;99.90
1205;DHT22;592;48.764;9.174;2022-10-31T04:46:55;11.70;99.90
1205;DHT22;592;48.764;9.174;2022-10-31T04:49:22;11.70;99.90
1205;DHT22;592;48.764;9.174;2022-10-31T04:51:48;11.80;99.90
1205;DHT22;592;48.764;9.174;2022-10-31T04:54:16;11.80;99.90
1205;DHT22;592;48.764;9.174;2022-10-31T04:56:43;11.80;99.90
1205;DHT22;592;48.764;9.174;2022-10-31T04:59:10;11.80;99.90
1205;DHT22;592;48.764;9.174;2022-10-31T05:01:36;11.90;99.90
1205;DHT22;592;48.764;9.174;2022-10-31T05:04:03;11.80;99.90
1205;DHT22;592;48.764;9.174;2022-10-31T05:06:30;11.90;99.90
1205;DHT22;592;48.764;9.174;2022-10-31T05:08:57;11.80;99.90
1205;DHT22;592;48.764;9.174;2022-10-31T05:11:25;11.80;99.90
1205;DHT22;592;48.764;9.174;2022-10-31T05:13:52;11.80;99.90
1205;DHT22;592;48.764;9.174;2022-10-31T05:16:18;11.80;99.90
1205;DHT22;592;48.764;9.174;2022-10-31T05:18:45;11.70;99.90
1205;DHT22;592;48.764;9.174;2022-10-31T05:21:12;11.60;99.90
1205;DHT22;592;48.764;9.174;2022-10-31T05:23:39;11.60;99.90
1205;DHT22;592;48.764;9.174;2022-10-31T05:26:05;11.70;99.90
1205;DHT22;592;48.764;9.174;2022-10-31T05:28:36;11.60;99.90
1205;DHT22;592;48.764;9.174;2022-10-31T05:31:02;11.70;99.90
1205;DHT22;592;48.764;9.174;2022-10-31T05:33:29;11.70;99.90
1205;DHT22;592;48.764;9.174;2022-10-31T05:35:56;11.70;99.90
1205;DHT22;592;48.764;9.174;2022-10-31T05:38:23;11.50;99.90
1205;DHT22;592;48.764;9.174;2022-10-31T05:40:49;11.60;99.90
1205;DHT22;592;48.764;9.174;2022-10-31T05:43:16;11.50;99.90
1205;DHT22;592;48.764;9.174;2022-10-31T05:45:44;11.20;99.90
1205;DHT22;592;48.764;9.174;2022-10-31T05:48:11;11.20;99.90
1205;DHT22;592;48.764;9.174;2022-10-31T05:50:38;11.20;99.90
1205;DHT22;592;48.764;9.174;2022-10-31T05:53:05;11.10;99.90
1205;DHT22;592;48.764;9.174;2022-10-31T05:55:32;11.00;99.90
1205;DHT22;592;48.764;9.174;2022-10-31T05:57:59;11.10;99.90
1205;DHT22;592;48.764;9.174;2022-10-31T06:00:27;11.10;99.90
1205;DHT22;592;48.764;9.174;2022-10-31T06:03:00;11.20;99.90
1205;DHT22;592;48.764;9.174;2022-10-31T06:05:27;11.20;99.90
1205;DHT22;592;48.764;9.174;2022-10-31T06:07:54;11.10;99.90
1205;DHT22;592;48.764;9.174;2022-10-31T06:10:20;11.30;99.90
1205;DHT22;592;48.764;9.174;2022-10-31T06:12:47;11.30;99.90
1205;DHT22;592;48.764;9.174;2022-10-31T06:15:14;11.30;99.90
1205;DHT22;592;48.764;9.174;2022-10-31T06:17:41;11.40;99.90
1205;DHT22;592;48.764;9.174;2022-10-31T06:20:10;11.40;99.90
1205;DHT22;592;48.764;9.174;2022-10-31T06:22:37;11.40;99.90
1205;DHT22;592;48.764;9.174;2022-10-31T06:25:04;11.40;99.90
1205;DHT22;592;48.764;9.174;2022-10-31T06:27:31;11.40;99.90
1205;DHT22;592;48.764;9.174;2022-10-31T06:29:58;11.30;99.90
1205;DHT22;592;48.764;9.174;2022-10-31T06:32:24;11.20;99.90
1205;DHT22;592;48.764;9.174;2022-10-31T06:34:51;11.20;99.90
1205;DHT22;592;48.764;9.174;2022-10-31T06:37:19;11.30;99.90
1205;DHT22;592;48.764;9.174;2022-10-31T06:39:46;11.40;99.90
1205;DHT22;592;48.764;9.174;2022-10-31T06:42:15;11.40;99.90
1205;DHT22;592;48.764;9.174;2022-10-31T06:44:42;11.40;99.90
1205;DHT22;592;48.764;9.174;2022-10-31T06:47:09;11.50;99.90
1205;DHT22;592;48.764;9.174;2022-10-31T06:49:36;11.40;99.90
1205;DHT22;592;48.764;9.174;2022-10-31T06:52:03;11.10;99.90
1205;DHT22;592;48.764;9.174;2022-10-31T06:54:31;11.00;99.90
1205;DHT22;592;48.764;9.174;2022-10-31T06:56:58;11.10;99.90
1205;DHT22;592;48.764;9.174;2022-10-31T06:59:24;11.20;99.90
1205;DHT22;592;48.764;9.174;2022-10-31T07:01:51;11.30;99.90
1205;DHT22;592;48.764;9.174;2022-10-31T07:04:18;11.30;99.90
1205;DHT22;592;48.764;9.174;2022-10-31T07:06:44;11.30;99.90
1205;DHT22;592;48.764;9.174;2022-10-31T07:09:11;11.40;99.90
1205;DHT22;592;48.764;9.174;2022-10-31T07:11:39;11.50;99.90
1205;DHT22;592;48.764;9.174;2022-10-31T07:14:06;11.60;99.90
1205;DHT22;592;48.764;9.174;2022-10-31T07:16:33;11.50;99.90
1205;DHT22;592;48.764;9.174;2022-10-31T07:18:59;11.50;99.90
1205;DHT22;592;48.764;9.174;2022-10-31T07:21:26;11.40;99.90
1205;DHT22;592;48.764;9.174;2022-10-31T07:23:53;11.30;99.90
1205;DHT22;592;48.764;9.174;2022-10-31T07:26:20;11.50;99.90
1205;DHT22;592;48.764;9.174;2022-10-31T07:28:48;11.50;99.90
1205;DHT22;592;48.764;9.174;2022-10-31T07:31:14;11.80;99.90
1205;DHT22;592;48.764;9.174;2022-10-31T07:33:41;11.90;99.90
1205;DHT22;592;48.764;9.174;2022-10-31T07:36:08;11.90;99.90
1205;DHT22;592;48.764;9.174;2022-10-31T07:38:35;11.90;99.90
1205;DHT22;592;48.764;9.174;2022-10-31T07:41:01;12.00;99.90
1205;DHT22;592;48.764;9.174;2022-10-31T07:43:28;12.10;99.90
1205;DHT22;592;48.764;9.174;2022-10-31T07:45:56;12.10;99.90
1205;DHT22;592;48.764;9.174;2022-10-31T07:48:23;12.10;99.90
1205;DHT22;592;48.764;9.174;2022-10-31T07:50:49;12.20;99.90
1205;DHT22;592;48.764;9.174;2022-10-31T07:53:16;12.30;99.90
1205;DHT22;592;48.764;9.174;2022-10-31T07:55:43;12.20;99.90
1205;DHT22;592;48.764;9.174;2022-10-31T07:58:11;12.20;99.90
1205;DHT22;592;48.764;9.174;2022-10-31T08:00:40;12.20;99.90
1205;DHT22;592;48.764;9.174;2022-10-31T08:03:09;12.20;99.90
1205;DHT22;592;48.764;9.174;2022-10-31T08:05:37;12.20;99.90
1205;DHT22;592;48.764;9.174;2022-10-31T08:08:05;12.30;99.90
1205;DHT22;592;48.764;9.174;2022-10-31T08:10:33;12.40;99.90
1205;DHT22;592;48.764;9.174;2022-10-31T08:13:02;12.50;99.90
1205;DHT22;592;48.764;9.174;2022-10-31T08:15:29;12.50;99.90
1205;DHT22;592;48.764;9.174;2022-10-31T08:17:56;12.60;99.90
1205;DHT22;592;48.764;9.174;2022-10-31T08:20:24;12.80;99.90
1205;DHT22;592;48.764;9.174;2022-10-31T08:22:56;12.80;99.90
1205;DHT22;592;48.764;9.174;2022-10-31T08:25:23;12.80;99.90
1205;DHT22;592;48.764;9.174;2022-10-31T08:27:51;12.80;99.90
1205;DHT22;592;48.764;9.174;2022-10-31T08:30:18;12.90;99.90
1205;DHT22;592;48.764;9.174;2022-10-31T08:32:45;13.00;99.90
1205;DHT22;592;48.764;9.174;2022-10-31T08:35:12;13.10;99.90
1205;DHT22;592;48.764;9.174;2022-10-31T08:37:41;13.10;99.90
1205;DHT22;592;48.764;9.174;2022-10-31T08:40:08;13.10;99.90
1205;DHT22;592;48.764;9.174;2022-10-31T08:42:36;13.20;99.90
1205;DHT22;592;48.764;9.174;2022-10-31T08:45:03;13.30;99.90
1205;DHT22;592;48.764;9.174;2022-10-31T08:47:30;13.30;99.90
1205;DHT22;592;48.764;9.174;2022-10-31T08:49:57;13.30;99.90
1205;DHT22;592;48.764;9.174;2022-10-31T08:52:24;13.40;99.90
1205;DHT22;592;48.764;9.174;2022-10-31T08:54:53;13.50;99.90
1205;DHT22;592;48.764;9.174;2022-10-31T08:57:19;13.50;99.90
1205;DHT22;592;48.764;9.174;2022-10-31T08:59:46;13.40;99.90
1205;DHT22;592;48.764;9.174;2022-10-31T09:02:13;13.50;99.90
1205;DHT22;592;48.764;9.174;2022-10-31T09:04:39;13.40;99.90
1205;DHT22;592;48.764;9.174;2022-10-31T09:07:06;13.50;99.90
1205;DHT22;592;48.764;9.174;2022-10-31T09:09:33;13.60;99.90
1205;DHT22;592;48.764;9.174;2022-10-31T09:12:01;13.50;99.90
1205;DHT22;592;48.764;9.174;2022-10-31T09:14:28;13.60;99.90
1205;DHT22;592;48.764;9.174;2022-10-31T09:16:55;13.60;99.90
1205;DHT22;592;48.764;9.174;2022-10-31T09:19:21;13.60;99.90
1205;DHT22;592;48.764;9.174;2022-10-31T09:21:52;13.60;99.90
1205;DHT22;592;48.764;9.174;2022-10-31T09:24:18;13.60;99.90
1205;DHT22;592;48.764;9.174;2022-10-31T09:26:45;13.80;99.90
1205;DHT22;592;48.764;9.174;2022-10-31T09:29:13;13.80;99.90
1205;DHT22;592;48.764;9.174;2022-10-31T09:31:40;14.00;99.90
1205;DHT22;592;48.764;9.174;2022-10-31T09:34:06;14.00;99.90
1205;DHT22;592;48.764;9.174;2022-10-31T09:36:33;14.20;99.90
1205;DHT22;592;48.764;9.174;2022-10-31T09:39:00;14.20;99.90
1205;DHT22;592;48.764;9.174;2022-10-31T09:41:33;14.30;99.90
1205;DHT22;592;48.764;9.174;2022-10-31T09:44:07;14.30;99.90
1205;DHT22;592;48.764;9.174;2022-10-31T09:46:48;14.40;99.90
1205;DHT22;592;48.764;9.174;2022-10-31T09:49:32;14.40;99.90
1205;DHT22;592;48.764;9.174;2022-10-31T09:52:02;14.50;99.90
1205;DHT22;592;48.764;9.174;2022-10-31T09:54:36;14.50;99.90
1205;DHT22;592;48.764;9.174;2022-10-31T09:57:05;14.50;99.90
1205;DHT22;592;48.764;9.174;2022-10-31T09:59:39;14.60;99.90
1205;DHT22;592;48.764;9.174;2022-10-31T10:02:14;14.60;99.90
1205;DHT22;592;48.764;9.174;2022-10-31T10:04:46;14.70;99.90
1205;DHT22;592;48.764;9.174;2022-10-31T10:07:21;14.80;99.90
1205;DHT22;592;48.764;9.174;2022-10-31T10:09:49;14.80;99.90
1205;DHT22;592;48.764;9.174;2022-10-31T10:12:22;14.80;99.90
1205;DHT22;592;48.764;9.174;2022-10-31T10:15:00;14.90;99.90
1205;DHT22;592;48.764;9.174;2022-10-31T10:17:39;14.80;99.90
1205;DHT22;592;48.764;9.174;2022-10-31T10:20:16;14.80;99.90
1205;DHT22;592;48.764;9.174;2022-10-31T10:22:52;14.70;99.90
1205;DHT22;592;48.764;9.174;2022-10-31T10:25:22;14.80;99.90
1205;DHT22;592;48.764;9.174;2022-10-31T10:27:59;14.90;99.90
1205;DHT22;592;48.764;9.174;2022-10-31T10:30:33;15.10;99.90
1205;DHT22;592;48.764;9.174;2022-10-31T10:33:04;15.00;99.90
1205;DHT22;592;48.764;9.174;2022-10-31T10:35:36;15.10;99.90
1205;DHT22;592;48.764;9.174;2022-10-31T10:38:13;15.20;99.90
1205;DHT22;592;48.764;9.174;2022-10-31T10:40:41;15.30;99.90
1205;DHT22;592;48.764;9.174;2022-10-31T10:43:19;15.30;99.90
1205;DHT22;592;48.764;9.174;2022-10-31T10:45:50;15.40;99.90
1205;DHT22;592;48.764;9.174;2022-10-31T10:48:42;15.40;99.90
1205;DHT22;592;48.764;9.174;2022-10-31T10:51:19;15.30;99.90
1205;DHT22;592;48.764;9.174;2022-10-31T10:53:54;15.40;99.90
1205;DHT22;592;48.764;9.174;2022-10-31T10:56:37;15.50;99.90
1205;DHT22;592;48.764;9.174;2022-10-31T10:59:09;15.50;99.90
1205;DHT22;592;48.764;9.174;2022-10-31T11:01:38;15.60;99.90
1205;DHT22;592;48.764;9.174;2022-10-31T11:04:20;15.50;99.90
1205;DHT22;592;48.764;9.174;2022-10-31T11:06:57;15.60;99.90
1205;DHT22;592;48.764;9.174;2022-10-31T11:09:24;15.60;99.90
1205;DHT22;592;48.764;9.174;2022-10-31T11:11:51;15.60;99.90
1205;DHT22;592;48.764;9.174;2022-10-31T11:14:18;15.70;99.90
1205;DHT22;592;48.764;9.174;2022-10-31T11:16:48;15.80;99.90
1205;DHT22;592;48.764;9.174;2022-10-31T11:19:19;15.90;99.90
1205;DHT22;592;48.764;9.174;2022-10-31T11:21:47;16.00;99.90
1205;DHT22;592;48.764;9.174;2022-10-31T11:24:16;16.10;99.90
1205;DHT22;592;48.764;9.174;2022-10-31T11:26:49;16.10;99.90
1205;DHT22;592;48.764;9.174;2022-10-31T11:29:21;16.10;99.90
1205;DHT22;592;48.764;9.174;2022-10-31T11:31:52;16.10;99.90
1205;DHT22;592;48.764;9.174;2022-10-31T11:34:29;16.20;99.90
1205;DHT22;592;48.764;9.174;2022-10-31T11:37:01;16.20;99.90
1205;DHT22;592;48.764;9.174;2022-10-31T11:39:29;16.30;99.90
1205;DHT22;592;48.764;9.174;2022-10-31T11:42:00;16.30;99.90
1205;DHT22;592;48.764;9.174;2022-10-31T11:44:29;16.40;99.90
1205;DHT22;592;48.764;9.174;2022-10-31T11:46:59;16.40;99.90
1205;DHT22;592;48.764;9.174;2022-10-31T11:49:31;16.50;99.90
1205;DHT22;592;48.764;9.174;2022-10-31T11:52:00;16.50;99.90
1205;DHT22;592;48.764;9.174;2022-10-31T11:54:30;16.40;99.90
1205;DHT22;592;48.764;9.174;2022-10-31T11:56:58;16.50;99.90
1205;DHT22;592;48.764;9.174;2022-10-31T11:59:27;16.60;99.90
1205;DHT22;592;48.764;9.174;2022-10-31T12:01:57;16.70;99.90
1205;DHT22;592;48.764;9.174;2022-10-31T12:04:32;16.80;99.90
1205;DHT22;592;48.764;9.174;2022-10-31T12:07:00;16.80;99.90
1205;DHT22;592;48.764;9.174;2022-10-31T12:09:28;16.70;99.90
1205;DHT22;592;48.764;9.174;2022-10-31T12:12:10;16.80;99.90
1205;DHT22;592;48.764;9.174;2022-10-31T12:14:44;16.90;99.90
1205;DHT22;592;48.764;9.174;2022-10-31T12:17:16;17.00;99.90
1205;DHT22;592;48.764;9.174;2022-10-31T12:19:59;17.10;99.90
1205;DHT22;592;48.764;9.174;2022-10-31T12:22:34;17.20;99.90
1205;DHT22;592;48.764;9.174;2022-10-31T12:25:19;17.30;99.90
1205;DHT22;592;48.764;9.174;2022-10-31T12:27:59;17.30;99.90
1205;DHT22;592;48.764;9.174;2022-10-31T12:30:36;17.30;99.90
1205;DHT22;592;48.764;9.174;2022-10-31T12:33:30;17.40;99.90
1205;DHT22;592;48.764;9.174;2022-10-31T12:36:15;17.50;99.90
1205;DHT22;592;48.764;9.174;2022-10-31T12:39:07;17.50;99.90
1205;DHT22;592;48.764;9.174;2022-10-31T12:41:46;17.50;99.90
1205;DHT22;592;48.764;9.174;2022-10-31T12:44:31;17.60;99.90
1205;DHT22;592;48.764;9.174;2022-10-31T12:47:20;17.50;99.90
1205;DHT22;592;48.764;9.174;2022-10-31T12:49:58;17.50;99.90
1205;DHT22;592;48.764;9.174;2022-10-31T12:52:39;17.50;99.90
1205;DHT22;592;48.764;9.174;2022-10-31T12:55:25;17.50;99.90
1205;DHT22;592;48.764;9.174;2022-10-31T12:57:57;17.50;99.90
1205;DHT22;592;48.764;9.174;2022-10-31T13:00:26;17.40;99.90
1205;DHT22;592;48.764;9.174;2022-10-31T13:02:58;17.40;99.90
1205;DHT22;592;48.764;9.174;2022-10-31T13:05:30;17.30;99.90
1205;DHT22;592;48.764;9.174;2022-10-31T13:08:03;17.40;99.90
1205;DHT22;592;48.764;9.174;2022-10-31T13:10:33;17.40;99.90
1205;DHT22;592;48.764;9.174;2022-10-31T13:13:05;17.40;99.90
1205;DHT22;592;48.764;9.174;2022-10-31T13:15:39;17.40;99.90
1205;DHT22;592;48.764;9.174;2022-10-31T13:18:26;17.50;99.90
1205;DHT22;592;48.764;9.174;2022-10-31T13:20:55;17.50;99.90
1205;DHT22;592;48.764;9.174;2022-10-31T13:23:28;17.50;99.90
1205;DHT22;592;48.764;9.174;2022-10-31T13:25:57;17.50;99.90
1205;DHT22;592;48.764;9.174;2022-10-31T13:28:31;17.50;99.90
1205;DHT22;592;48.764;9.174;2022-10-31T13:31:00;17.50;99.90
1205;DHT22;592;48.764;9.174;2022-10-31T13:33:29;17.50;99.90
1205;DHT22;592;48.764;9.174;2022-10-31T13:36:07;17.50;99.90
1205;DHT22;592;48.764;9.174;2022-10-31T13:38:41;17.60;99.90
1205;DHT22;592;48.764;9.174;2022-10-31T13:41:19;17.80;99.90
1205;DHT22;592;48.764;9.174;2022-10-31T13:43:59;18.00;99.90
1205;DHT22;592;48.764;9.174;2022-10-31T13:46:35;18.10;99.90
1205;DHT22;592;48.764;9.174;2022-10-31T13:49:03;18.20;99.90
1205;DHT22;592;48.764;9.174;2022-10-31T13:51:31;18.20;99.90
1205;DHT22;592;48.764;9.174;2022-10-31T13:54:05;18.20;99.90
1205;DHT22;592;48.764;9.174;2022-10-31T13:56:33;18.10;99.90
1205;DHT22;592;48.764;9.174;2022-10-31T13:59:16;18.10;99.90
1205;DHT22;592;48.764;9.174;2022-10-31T14:01:51;18.10;99.90
1205;DHT22;592;48.764;9.174;2022-10-31T14:04:21;18.10;99.90
1205;DHT22;592;48.764;9.174;2022-10-31T14:06:58;18.10;99.90
1205;DHT22;592;48.764;9.174;2022-10-31T14:09:35;18.20;99.90
1205;DHT22;592;48.764;9.174;2022-10-31T14:12:05;18.30;99.90
1205;DHT22;592;48.764;9.174;2022-10-31T14:14:41;18.40;99.90
1205;DHT22;592;48.764;9.174;2022-10-31T14:17:18;18.50;99.90
1205;DHT22;592;48.764;9.174;2022-10-31T14:20:00;18.50;99.90
1205;DHT22;592;48.764;9.174;2022-10-31T14:22:32;18.50;99.90
1205;DHT22;592;48.764;9.174;2022-10-31T14:25:01;18.50;99.90
1205;DHT22;592;48.764;9.174;2022-10-31T14:27:43;18.60;99.90
1205;DHT22;592;48.764;9.174;2022-10-31T14:30:15;18.60;99.90
1205;DHT22;592;48.764;9.174;2022-10-31T14:32:43;18.60;99.90
1205;DHT22;592;48.764;9.174;2022-10-31T14:35:15;18.40;99.90
1205;DHT22;592;48.764;9.174;2022-10-31T14:38:04;18.30;99.90
1205;DHT22;592;48.764;9.174;2022-10-31T14:40:46;18.30;99.90
1205;DHT22;592;48.764;9.174;2022-10-31T14:43:45;18.30;99.90
1205;DHT22;592;48.764;9.174;2022-10-31T14:46:30;18.30;99.90
1205;DHT22;592;48.764;9.174;2022-10-31T14:49:12;18.30;99.90
1205;DHT22;592;48.764;9.174;2022-10-31T14:51:44;18.20;99.90
1205;DHT22;592;48.764;9.174;2022-10-31T14:54:15;18.20;99.90
1205;DHT22;592;48.764;9.174;2022-10-31T14:56:48;18.10;99.90
1205;DHT22;592;48.764;9.174;2022-10-31T14:59:19;18.00;99.90
1205;DHT22;592;48.764;9.174;2022-10-31T15:01:54;17.90;99.90
1205;DHT22;592;48.764;9.174;2022-10-31T15:04:23;18.00;99.90
1205;DHT22;592;48.764;9.174;2022-10-31T15:06:54;18.00;99.90
1205;DHT22;592;48.764;9.174;2022-10-31T15:09:26;18.00;99.90
1205;DHT22;592;48.764;9.174;2022-10-31T15:11:54;18.00;99.90
1205;DHT22;592;48.764;9.174;2022-10-31T15:14:24;17.80;99.90
1205;DHT22;592;48.764;9.174;2022-10-31T15:16:51;17.70;99.90
1205;DHT22;592;48.764;9.174;2022-10-31T15:19:21;17.60;99.90
1205;DHT22;592;48.764;9.174;2022-10-31T15:21:51;17.60;99.90
1205;DHT22;592;48.764;9.174;2022-10-31T15:24:18;17.60;99.90
1205;DHT22;592;48.764;9.174;2022-10-31T15:26:48;17.60;99.90
1205;DHT22;592;48.764;9.174;2022-10-31T15:29:18;17.60;99.90
1205;DHT22;592;48.764;9.174;2022-10-31T15:31:50;17.60;99.90
1205;DHT22;592;48.764;9.174;2022-10-31T15:34:21;17.50;99.90
1205;DHT22;592;48.764;9.174;2022-10-31T15:36:49;17.50;99.90
1205;DHT22;592;48.764;9.174;2022-10-31T15:39:16;17.40;99.90
1205;DHT22;592;48.764;9.174;2022-10-31T15:41:52;17.30;99.90
1205;DHT22;592;48.764;9.174;2022-10-31T15:44:23;17.20;99.90
1205;DHT22;592;48.764;9.174;2022-10-31T15:46:58;17.20;99.90
1205;DHT22;592;48.764;9.174;2022-10-31T15:49:33;17.10;99.90
1205;DHT22;592;48.764;9.174;2022-10-31T15:52:12;17.10;99.90
1205;DHT22;592;48.764;9.174;2022-10-31T15:54:47;17.00;99.90
1205;DHT22;592;48.764;9.174;2022-10-31T15:57:15;16.90;99.90
1205;DHT22;592;48.764;9.174;2022-10-31T15:59:46;16.90;99.90
1205;DHT22;592;48.764;9.174;2022-10-31T16:02:15;16.90;99.90
1205;DHT22;592;48.764;9.174;2022-10-31T16:04:53;16.80;99.90
1205;DHT22;592;48.764;9.174;2022-10-31T16:07:20;16.80;99.90
1205;DHT22;592;48.764;9.174;2022-10-31T16:09:53;16.80;99.90
1205;DHT22;592;48.764;9.174;2022-10-31T16:12:21;16.70;99.90
1205;DHT22;592;48.764;9.174;2022-10-31T16:14:51;16.50;99.90
1205;DHT22;592;48.764;9.174;2022-10-31T16:17:21;16.30;99.90
1205;DHT22;592;48.764;9.174;2022-10-31T16:19:52;16.40;99.90
1205;DHT22;592;48.764;9.174;2022-10-31T16:22:22;16.40;99.90
1205;DHT22;592;48.764;9.174;2022-10-31T16:24:53;16.20;99.90
1205;DHT22;592;48.764;9.174;2022-10-31T16:27:21;16.10;99.90
1205;DHT22;592;48.764;9.174;2022-10-31T16:29:52;16.00;99.90
1205;DHT22;592;48.764;9.174;2022-10-31T16:32:25;15.90;99.90
1205;DHT22;592;48.764;9.174;2022-10-31T16:34:58;16.00;99.90
1205;DHT22;592;48.764;9.174;2022-10-31T16:37:25;16.00;99.90
1205;DHT22;592;48.764;9.174;2022-10-31T16:39:51;15.90;99.90
1205;DHT22;592;48.764;9.174;2022-10-31T16:42:18;15.50;99.90
1205;DHT22;592;48.764;9.174;2022-10-31T16:44:46;15.10;99.90
1205;DHT22;592;48.764;9.174;2022-10-31T16:47:17;15.20;99.90